createdAt,value
2023-02-15T00:00:09.323Z,4.60
2023-02-15T00:02:38.696Z,4.60
2023-02-15T00:05:12.142Z,4.60
2023-02-15T00:07:39.035Z,4.60
2023-02-15T00:10:09.786Z,4.50
2023-02-15T00:12:36.702Z,4.50
2023-02-15T00:15:03.953Z,4.50
2023-02-15T00:17:30.967Z,4.50
2023-02-15T00:19:57.727Z,4.40
2023-02-15T00:22:27.553Z,4.40
2023-02-15T00:24:54.274Z,4.40
2023-02-15T00:27:21.164Z,4.40
2023-02-15T00:29:50.631Z,4.30
2023-02-15T00:32:17.364Z,4.40
2023-02-15T00:34:44.372Z,4.40
2023-02-15T00:37:11.228Z,4.40
2023-02-15T00:39:37.952Z,4.40
2023-02-15T00:42:04.750Z,4.30
2023-02-15T00:44:31.484Z,4.30
2023-02-15T00:46:58.239Z,4.20
2023-02-15T00:49:24.971Z,4.20
2023-02-15T00:51:51.717Z,4.20
2023-02-15T00:54:18.579Z,4.20
2023-02-15T00:56:48.345Z,4.20
2023-02-15T00:59:15.105Z,4.10
2023-02-15T01:01:44.797Z,4.00
2023-02-15T01:04:11.713Z,4.00
2023-02-15T01:06:38.577Z,4.00
2023-02-15T01:09:07.583Z,4.00
2023-02-15T01:11:34.360Z,3.90
2023-02-15T01:14:01.769Z,4.00
2023-02-15T01:16:30.188Z,3.90
2023-02-15T01:18:57.169Z,4.00
2023-02-15T01:21:26.400Z,4.00
2023-02-15T01:23:53.802Z,3.90
2023-02-15T01:26:20.759Z,3.90
2023-02-15T01:28:47.899Z,3.90
2023-02-15T01:31:21.754Z,3.90
2023-02-15T01:33:49.329Z,3.90
2023-02-15T01:36:20.558Z,3.90
2023-02-15T01:38:50.365Z,3.90
2023-02-15T01:41:24.180Z,3.80
2023-02-15T01:44:48.281Z,3.80
2023-02-15T01:47:33.528Z,3.70
2023-02-15T01:50:39.253Z,3.60
2023-02-15T01:53:17.457Z,3.60
2023-02-15T01:56:01.661Z,3.60
2023-02-15T01:58:31.412Z,3.50
2023-02-15T02:01:01.739Z,3.50
2023-02-15T02:04:13.575Z,3.50
2023-02-15T02:06:40.891Z,3.50
2023-02-15T02:09:08.589Z,3.50
2023-02-15T02:11:36.224Z,3.50
2023-02-15T02:14:03.217Z,3.50
2023-02-15T02:17:08.141Z,3.40
2023-02-15T02:20:15.778Z,3.40
2023-02-15T02:22:56.610Z,3.40
2023-02-15T02:25:43.821Z,3.40
2023-02-15T02:28:51.310Z,3.40
2023-02-15T02:31:49.397Z,3.40
2023-02-15T02:34:57.893Z,3.40
2023-02-15T02:38:00.886Z,3.40
2023-02-15T02:40:52.034Z,3.30
2023-02-15T02:43:41.499Z,3.30
2023-02-15T02:46:32.537Z,3.30
2023-02-15T02:49:01.788Z,3.20
2023-02-15T02:51:28.548Z,3.20
2023-02-15T02:54:01.918Z,3.20
2023-02-15T02:56:43.286Z,3.30
2023-02-15T02:59:30.331Z,3.20
2023-02-15T03:02:19.226Z,3.20
2023-02-15T03:04:59.568Z,3.20
2023-02-15T03:07:29.792Z,3.10
2023-02-15T03:10:01.562Z,3.10
2023-02-15T03:12:36.720Z,3.10
2023-02-15T03:15:09.522Z,3.10
2023-02-15T03:17:48.241Z,3.20
2023-02-15T03:20:39.120Z,3.10
2023-02-15T03:23:15.520Z,3.10
2023-02-15T03:25:49.752Z,3.10
2023-02-15T03:28:29.742Z,3.10
2023-02-15T03:31:05.578Z,3.10
2023-02-15T03:33:35.920Z,3.10
2023-02-15T03:36:29.797Z,3.00
2023-02-15T03:39:18.161Z,3.00
2023-02-15T03:41:56.829Z,3.00
2023-02-15T03:44:32.061Z,3.00
2023-02-15T03:47:12.799Z,3.00
2023-02-15T03:49:55.798Z,3.00
2023-02-15T03:52:27.003Z,3.00
2023-02-15T03:54:55.601Z,3.00
2023-02-15T03:57:48.527Z,3.00
2023-02-15T04:00:55.535Z,3.00
2023-02-15T04:03:44.001Z,3.00
2023-02-15T04:06:10.762Z,2.90
2023-02-15T04:09:03.224Z,3.00
2023-02-15T04:11:32.766Z,2.90
2023-02-15T04:13:59.489Z,3.00
2023-02-15T04:16:26.767Z,2.90
2023-02-15T04:19:11.993Z,2.90
2023-02-15T04:21:57.394Z,2.90
2023-02-15T04:24:45.563Z,2.90
2023-02-15T04:27:12.247Z,2.90
2023-02-15T04:29:41.516Z,2.80
2023-02-15T04:32:08.413Z,2.90
2023-02-15T04:34:35.179Z,2.90
2023-02-15T04:37:01.880Z,2.80
2023-02-15T04:39:34.965Z,2.80
2023-02-15T04:42:01.712Z,2.80
2023-02-15T04:44:28.455Z,2.80
2023-02-15T04:46:55.701Z,2.80
2023-02-15T04:49:22.453Z,2.80
2023-02-15T04:51:52.147Z,2.80
2023-02-15T04:54:18.959Z,2.80
2023-02-15T04:56:45.722Z,2.80
2023-02-15T04:59:13.243Z,2.80
2023-02-15T05:01:42.673Z,2.80
2023-02-15T05:04:10.189Z,2.80
2023-02-15T05:06:37.049Z,2.80
2023-02-15T05:09:04.133Z,2.80
2023-02-15T05:11:30.998Z,2.80
2023-02-15T05:13:57.821Z,2.80
2023-02-15T05:16:24.670Z,2.80
2023-02-15T05:18:51.590Z,2.80
2023-02-15T05:21:21.632Z,2.80
2023-02-15T05:23:48.456Z,2.80
2023-02-15T05:26:40.723Z,2.80
2023-02-15T05:29:08.594Z,2.80
2023-02-15T05:31:36.564Z,2.80
2023-02-15T05:34:04.208Z,2.80
2023-02-15T05:36:34.186Z,2.80
2023-02-15T05:39:01.142Z,2.80
2023-02-15T05:41:27.963Z,2.80
2023-02-15T05:43:57.759Z,2.80
2023-02-15T05:46:29.803Z,2.80
2023-02-15T05:48:56.608Z,2.80
2023-02-15T05:51:23.423Z,2.80
2023-02-15T05:53:50.181Z,2.80
2023-02-15T05:56:16.984Z,2.80
2023-02-15T05:58:46.107Z,2.80
2023-02-15T06:01:23.888Z,2.80
2023-02-15T06:03:51.083Z,2.80
2023-02-15T06:06:17.942Z,2.70
2023-02-15T06:08:44.917Z,2.60
2023-02-15T06:11:11.857Z,2.70
2023-02-15T06:13:41.764Z,2.70
2023-02-15T06:16:08.905Z,2.70
2023-02-15T06:18:38.502Z,2.60
2023-02-15T06:21:05.264Z,2.60
2023-02-15T06:23:32.048Z,2.60
2023-02-15T06:26:01.289Z,2.60
2023-02-15T06:28:35.414Z,2.60
2023-02-15T06:31:02.287Z,2.60
2023-02-15T06:33:31.309Z,2.60
2023-02-15T06:35:59.074Z,2.60
2023-02-15T06:38:25.853Z,2.60
2023-02-15T06:40:53.743Z,2.50
2023-02-15T06:43:28.858Z,2.60
2023-02-15T06:45:59.153Z,2.50
2023-02-15T06:48:29.234Z,2.50
2023-02-15T06:50:56.012Z,2.60
2023-02-15T06:53:22.793Z,2.60
2023-02-15T06:55:49.513Z,2.60
2023-02-15T06:58:23.499Z,2.60
2023-02-15T07:00:52.138Z,2.60
2023-02-15T07:03:20.984Z,2.60
2023-02-15T07:05:49.696Z,2.60
2023-02-15T07:08:16.486Z,2.60
2023-02-15T07:10:51.738Z,2.70
2023-02-15T07:13:27.847Z,2.70
2023-02-15T07:15:54.572Z,2.70
2023-02-15T07:18:23.993Z,2.70
2023-02-15T07:20:50.719Z,2.70
2023-02-15T07:23:17.511Z,2.70
2023-02-15T07:25:44.183Z,2.80
2023-02-15T07:28:10.923Z,2.80
2023-02-15T07:30:41.248Z,2.80
2023-02-15T07:33:27.909Z,2.80
2023-02-15T07:36:02.174Z,2.80
2023-02-15T07:38:37.028Z,2.80
2023-02-15T07:41:11.325Z,2.90
2023-02-15T07:43:41.859Z,2.90
2023-02-15T07:46:12.692Z,2.90
2023-02-15T07:48:41.272Z,3.00
2023-02-15T07:51:11.298Z,3.00
2023-02-15T07:53:41.308Z,3.00
2023-02-15T07:56:13.756Z,3.00
2023-02-15T07:58:52.983Z,3.00
2023-02-15T08:01:28.399Z,3.10
2023-02-15T08:03:55.998Z,3.00
2023-02-15T08:06:26.892Z,3.20
2023-02-15T08:08:54.508Z,3.10
2023-02-15T08:11:37.628Z,3.10
2023-02-15T08:14:11.780Z,3.20
2023-02-15T08:16:53.352Z,3.20
2023-02-15T08:19:32.941Z,3.20
2023-02-15T08:22:06.658Z,3.30
2023-02-15T08:24:47.154Z,3.40
2023-02-15T08:27:13.942Z,3.40
2023-02-15T08:29:42.220Z,3.50
2023-02-15T08:32:18.594Z,3.50
2023-02-15T08:34:46.454Z,3.50
2023-02-15T08:37:13.264Z,3.50
2023-02-15T08:39:42.423Z,3.50
2023-02-15T08:42:09.244Z,3.60
2023-02-15T08:44:36.044Z,3.60
2023-02-15T08:47:04.693Z,3.60
2023-02-15T08:49:32.366Z,3.60
2023-02-15T08:51:59.168Z,3.60
2023-02-15T08:54:29.064Z,3.70
2023-02-15T08:56:55.911Z,3.80
2023-02-15T08:59:27.859Z,3.80
2023-02-15T09:01:57.705Z,3.90
2023-02-15T09:04:27.829Z,3.90
2023-02-15T09:06:55.971Z,4.00
2023-02-15T09:09:23.066Z,3.90
2023-02-15T09:11:59.232Z,4.00
2023-02-15T09:14:28.021Z,4.10
2023-02-15T09:16:55.525Z,4.10
2023-02-15T09:19:23.966Z,4.20
2023-02-15T09:21:53.915Z,4.20
2023-02-15T09:24:23.262Z,4.30
2023-02-15T09:26:50.481Z,4.30
2023-02-15T09:29:20.803Z,4.30
2023-02-15T09:31:50.881Z,4.40
2023-02-15T09:34:22.138Z,4.40
2023-02-15T09:36:50.149Z,4.50
2023-02-15T09:39:26.652Z,4.60
2023-02-15T09:42:01.440Z,4.70
2023-02-15T09:45:08.528Z,4.80
2023-02-15T09:47:59.361Z,4.90
2023-02-15T09:50:49.316Z,5.20
2023-02-15T09:54:02.446Z,5.30
2023-02-15T09:56:49.525Z,5.50
2023-02-15T09:59:41.905Z,5.70
2023-02-15T10:02:29.993Z,5.70
2023-02-15T10:05:49.755Z,5.80
2023-02-15T10:09:01.746Z,6.00
2023-02-15T10:11:59.664Z,6.10
2023-02-15T10:14:44.681Z,6.30
2023-02-15T10:17:45.149Z,6.30
2023-02-15T10:20:52.794Z,6.50
2023-02-15T10:23:59.881Z,6.70
2023-02-15T10:26:47.846Z,6.90
2023-02-15T10:29:39.689Z,7.00
2023-02-15T10:32:29.856Z,7.00
2023-02-15T10:35:16.300Z,7.00
2023-02-15T10:38:15.521Z,7.10
2023-02-15T10:41:04.522Z,7.20
2023-02-15T10:43:57.665Z,7.40
2023-02-15T10:47:01.593Z,7.50
2023-02-15T10:50:07.852Z,7.70
2023-02-15T10:53:48.753Z,7.80
2023-02-15T10:57:21.977Z,7.80
2023-02-15T11:00:32.316Z,8.10
2023-02-15T11:03:48.640Z,7.80
2023-02-15T11:06:20.492Z,7.90
2023-02-15T11:09:01.624Z,7.90
2023-02-15T11:11:41.392Z,7.90
2023-02-15T11:14:44.751Z,7.90
2023-02-15T11:17:18.299Z,7.90
2023-02-15T11:20:33.260Z,7.70
2023-02-15T11:23:04.506Z,7.80
2023-02-15T11:25:37.755Z,7.90
2023-02-15T11:28:25.157Z,8.00
2023-02-15T11:30:57.735Z,8.00
2023-02-15T11:33:37.024Z,8.20
2023-02-15T11:36:18.118Z,8.30
2023-02-15T11:38:57.565Z,8.30
2023-02-15T11:41:32.724Z,8.50
2023-02-15T11:44:16.888Z,8.40
2023-02-15T11:46:43.964Z,8.60
2023-02-15T11:49:31.896Z,8.50
2023-02-15T11:52:02.870Z,8.60
2023-02-15T11:54:34.467Z,8.90
2023-02-15T11:57:20.888Z,8.90
2023-02-15T11:59:59.397Z,8.90
2023-02-15T12:02:28.624Z,9.10
2023-02-15T12:05:06.525Z,9.20
2023-02-15T12:07:46.108Z,9.40
2023-02-15T12:10:28.619Z,9.40
2023-02-15T12:13:19.110Z,9.50
2023-02-15T12:15:50.809Z,9.50
2023-02-15T12:18:40.044Z,9.40
2023-02-15T12:21:36.677Z,9.40
2023-02-15T12:24:40.196Z,9.60
2023-02-15T12:27:17.215Z,9.60
2023-02-15T12:29:51.649Z,9.90
2023-02-15T12:32:35.387Z,9.90
2023-02-15T12:35:24.199Z,10.00
2023-02-15T12:38:10.053Z,10.00
2023-02-15T12:40:38.879Z,10.20
2023-02-15T12:43:09.531Z,10.30
2023-02-15T12:45:39.062Z,10.20
2023-02-15T12:48:20.045Z,10.30
2023-02-15T12:50:55.430Z,10.50
2023-02-15T12:53:33.100Z,10.60
2023-02-15T12:56:07.136Z,10.60
2023-02-15T12:58:42.113Z,10.70
2023-02-15T13:01:22.821Z,10.70
2023-02-15T13:04:07.264Z,10.50
2023-02-15T13:06:37.458Z,10.40
2023-02-15T13:09:33.608Z,10.60
2023-02-15T13:12:27.311Z,10.70
2023-02-15T13:14:56.970Z,10.60
2023-02-15T13:17:32.689Z,10.70
2023-02-15T13:20:27.343Z,10.70
2023-02-15T13:23:08.096Z,10.60
2023-02-15T13:25:51.246Z,10.60
2023-02-15T13:28:23.584Z,10.80
2023-02-15T13:30:59.805Z,10.70
2023-02-15T13:33:36.542Z,10.90
2023-02-15T13:36:18.995Z,10.90
2023-02-15T13:39:29.471Z,10.80
2023-02-15T13:42:33.944Z,10.90
2023-02-15T13:45:24.350Z,11.00
2023-02-15T13:48:31.478Z,10.90
2023-02-15T13:51:33.912Z,10.90
2023-02-15T13:54:34.532Z,10.90
2023-02-15T13:57:35.626Z,10.90
2023-02-15T14:00:21.154Z,10.90
2023-02-15T14:03:04.160Z,10.90
2023-02-15T14:05:31.752Z,10.90
2023-02-15T14:08:29.259Z,10.90
2023-02-15T14:11:07.839Z,10.90
2023-02-15T14:14:22.350Z,10.90
2023-02-15T14:17:29.382Z,10.90
2023-02-15T14:20:23.000Z,10.90
2023-02-15T14:23:39.587Z,11.00
2023-02-15T14:26:28.858Z,11.00
2023-02-15T14:29:31.379Z,11.00
2023-02-15T14:32:09.514Z,11.00
2023-02-15T14:35:00.088Z,10.90
2023-02-15T14:37:42.678Z,10.90
2023-02-15T14:40:50.526Z,10.90
2023-02-15T14:43:44.344Z,11.00
2023-02-15T14:46:21.707Z,11.00
2023-02-15T14:49:23.529Z,11.00
2023-02-15T14:51:51.123Z,11.10
2023-02-15T14:54:18.318Z,11.00
2023-02-15T14:56:47.507Z,11.00
2023-02-15T14:59:24.731Z,11.00
2023-02-15T15:02:24.707Z,11.00
2023-02-15T15:05:25.426Z,11.00
2023-02-15T15:07:59.831Z,11.00
2023-02-15T15:10:47.466Z,11.00
2023-02-15T15:13:32.509Z,11.00
2023-02-15T15:16:46.622Z,11.00
2023-02-15T15:19:52.834Z,10.90
2023-02-15T15:22:34.468Z,10.90
2023-02-15T15:25:05.083Z,10.80
2023-02-15T15:27:57.414Z,10.80
2023-02-15T15:30:24.319Z,10.80
2023-02-15T15:32:57.701Z,10.70
2023-02-15T15:36:18.359Z,10.70
2023-02-15T15:39:19.455Z,10.60
2023-02-15T15:42:21.589Z,10.60
2023-02-15T15:45:18.588Z,10.60
2023-02-15T15:48:17.720Z,10.60
2023-02-15T15:50:44.713Z,10.60
2023-02-15T15:53:24.116Z,10.50
2023-02-15T15:55:59.388Z,10.50
2023-02-15T15:58:26.394Z,10.60
2023-02-15T16:01:10.706Z,10.50
2023-02-15T16:03:37.531Z,10.50
2023-02-15T16:06:05.024Z,10.40
2023-02-15T16:08:36.216Z,10.40
2023-02-15T16:11:20.192Z,10.40
2023-02-15T16:13:48.147Z,10.40
2023-02-15T16:16:24.790Z,10.40
2023-02-15T16:18:52.836Z,10.30
2023-02-15T16:21:27.726Z,10.30
2023-02-15T16:24:26.861Z,10.30
2023-02-15T16:27:33.812Z,10.20
2023-02-15T16:30:29.218Z,10.20
2023-02-15T16:33:20.589Z,10.20
2023-02-15T16:35:59.946Z,10.20
2023-02-15T16:38:45.442Z,10.10
2023-02-15T16:41:28.645Z,10.10
2023-02-15T16:44:06.282Z,10.00
2023-02-15T16:46:40.475Z,10.00
2023-02-15T16:49:25.797Z,10.00
2023-02-15T16:52:03.903Z,10.00
2023-02-15T16:54:32.883Z,9.90
2023-02-15T16:57:00.242Z,9.90
2023-02-15T16:59:51.179Z,9.80
2023-02-15T17:02:53.077Z,9.80
2023-02-15T17:05:25.016Z,9.80
2023-02-15T17:08:17.987Z,9.80
2023-02-15T17:11:06.884Z,9.80
2023-02-15T17:13:33.693Z,9.80
2023-02-15T17:16:04.057Z,9.70
2023-02-15T17:18:32.798Z,9.70
2023-02-15T17:21:17.186Z,9.70
2023-02-15T17:23:48.326Z,9.60
2023-02-15T17:26:35.703Z,9.60
2023-02-15T17:29:29.681Z,9.50
2023-02-15T17:31:58.804Z,9.50
2023-02-15T17:34:49.781Z,9.50
2023-02-15T17:37:30.485Z,9.50
2023-02-15T17:40:00.485Z,9.50
2023-02-15T17:42:29.934Z,9.40
2023-02-15T17:44:56.818Z,9.40
2023-02-15T17:47:27.527Z,9.40
2023-02-15T17:49:54.954Z,9.30
2023-02-15T17:52:21.814Z,9.30
2023-02-15T17:55:14.280Z,9.30
2023-02-15T17:57:41.293Z,9.30
2023-02-15T18:00:33.218Z,9.30
2023-02-15T18:03:18.731Z,9.30
2023-02-15T18:06:06.302Z,9.20
2023-02-15T18:08:51.960Z,9.20
2023-02-15T18:11:35.111Z,9.20
2023-02-15T18:14:02.125Z,9.20
2023-02-15T18:16:36.150Z,9.20
2023-02-15T18:19:05.204Z,9.10
2023-02-15T18:21:33.932Z,9.10
2023-02-15T18:24:00.736Z,9.10
2023-02-15T18:26:29.747Z,9.10
2023-02-15T18:28:56.660Z,9.00
2023-02-15T18:31:26.574Z,9.00
2023-02-15T18:33:58.266Z,9.00
2023-02-15T18:36:32.448Z,9.00
2023-02-15T18:39:02.953Z,8.90
2023-02-15T18:41:32.706Z,8.90
2023-02-15T18:44:02.594Z,8.90
2023-02-15T18:46:29.341Z,8.90
2023-02-15T18:48:56.115Z,8.90
2023-02-15T18:51:24.049Z,8.80
2023-02-15T18:53:53.363Z,8.80
2023-02-15T18:56:23.233Z,8.80
2023-02-15T18:58:50.166Z,8.70
2023-02-15T19:01:21.127Z,8.70
2023-02-15T19:03:50.835Z,8.70
2023-02-15T19:06:25.664Z,8.70
2023-02-15T19:08:53.622Z,8.70
2023-02-15T19:11:25.130Z,8.70
2023-02-15T19:13:52.813Z,8.60
2023-02-15T19:16:31.473Z,8.60
2023-02-15T19:18:59.769Z,8.60
2023-02-15T19:21:30.960Z,8.60
2023-02-15T19:24:12.767Z,8.60
2023-02-15T19:26:46.205Z,8.50
2023-02-15T19:29:22.850Z,8.50
2023-02-15T19:31:49.713Z,8.50
2023-02-15T19:34:18.887Z,8.50
2023-02-15T19:36:50.207Z,8.50
2023-02-15T19:39:30.187Z,8.40
2023-02-15T19:41:59.038Z,8.40
2023-02-15T19:44:25.918Z,8.40
2023-02-15T19:46:52.720Z,8.40
2023-02-15T19:49:20.490Z,8.40
2023-02-15T19:51:47.644Z,8.30
2023-02-15T19:54:36.836Z,8.30
2023-02-15T19:57:03.682Z,8.30
2023-02-15T19:59:34.180Z,8.20
2023-02-15T20:02:00.925Z,8.20
2023-02-15T20:04:30.149Z,8.20
2023-02-15T20:07:01.459Z,8.10
2023-02-15T20:09:35.366Z,8.20
2023-02-15T20:12:02.174Z,8.10
2023-02-15T20:14:29.065Z,8.00
2023-02-15T20:16:55.790Z,8.10
2023-02-15T20:19:22.562Z,8.00
2023-02-15T20:21:52.034Z,8.00
2023-02-15T20:24:24.583Z,8.00
2023-02-15T20:26:51.466Z,8.00
2023-02-15T20:29:21.082Z,7.90
2023-02-15T20:31:47.986Z,7.90
2023-02-15T20:34:15.854Z,7.80
2023-02-15T20:36:49.040Z,7.80
2023-02-15T20:39:20.506Z,7.70
2023-02-15T20:41:47.837Z,7.70
2023-02-15T20:44:19.217Z,7.70
2023-02-15T20:46:52.044Z,7.70
2023-02-15T20:49:18.901Z,7.70
2023-02-15T20:51:47.566Z,7.60
2023-02-15T20:54:19.180Z,7.70
2023-02-15T20:56:47.723Z,7.70
2023-02-15T20:59:32.400Z,7.50
2023-02-15T21:02:23.102Z,7.60
2023-02-15T21:04:50.460Z,7.60
2023-02-15T21:07:20.643Z,7.60
2023-02-15T21:09:48.557Z,7.60
2023-02-15T21:12:18.534Z,7.50
2023-02-15T21:14:46.004Z,7.60
2023-02-15T21:17:18.465Z,7.50
2023-02-15T21:19:48.323Z,7.50
2023-02-15T21:22:25.343Z,7.50
2023-02-15T21:24:54.877Z,7.50
2023-02-15T21:27:24.787Z,7.50
2023-02-15T21:29:51.568Z,7.50
2023-02-15T21:32:24.434Z,7.40
2023-02-15T21:34:51.222Z,7.50
2023-02-15T21:37:40.167Z,7.50
2023-02-15T21:40:29.455Z,7.40
2023-02-15T21:43:31.975Z,7.40
2023-02-15T21:46:18.892Z,7.40
2023-02-15T21:48:46.350Z,7.30
2023-02-15T21:51:31.585Z,7.40
2023-02-15T21:53:58.390Z,7.40
2023-02-15T21:56:27.688Z,7.30
2023-02-15T21:58:57.430Z,7.30
2023-02-15T22:01:28.740Z,7.30
2023-02-15T22:03:59.351Z,7.20
2023-02-15T22:06:26.133Z,7.30
2023-02-15T22:08:53.017Z,7.20
2023-02-15T22:11:24.552Z,7.20
2023-02-15T22:13:51.754Z,7.20
2023-02-15T22:16:23.074Z,7.20
2023-02-15T22:18:50.362Z,7.10
2023-02-15T22:21:18.004Z,7.20
2023-02-15T22:23:45.191Z,7.20
2023-02-15T22:26:24.232Z,7.10
2023-02-15T22:28:51.418Z,7.10
2023-02-15T22:31:22.836Z,7.10
2023-02-15T22:33:50.951Z,7.10
2023-02-15T22:36:28.237Z,7.10
2023-02-15T22:38:56.477Z,7.10
2023-02-15T22:41:31.087Z,7.10
2023-02-15T22:43:58.146Z,7.10
2023-02-15T22:46:26.131Z,7.10
2023-02-15T22:48:53.076Z,7.00
2023-02-15T22:51:23.553Z,7.00
2023-02-15T22:53:53.985Z,7.10
2023-02-15T22:56:36.672Z,7.00
2023-02-15T22:59:08.789Z,6.90
2023-02-15T23:01:38.310Z,7.00
2023-02-15T23:04:05.442Z,7.00
2023-02-15T23:06:34.277Z,7.00
2023-02-15T23:09:01.365Z,6.90
2023-02-15T23:11:31.426Z,6.90
2023-02-15T23:13:58.206Z,6.80
2023-02-15T23:16:25.163Z,6.80
2023-02-15T23:18:52.114Z,6.70
2023-02-15T23:21:33.166Z,6.70
2023-02-15T23:24:15.725Z,6.80
2023-02-15T23:26:42.594Z,6.70
2023-02-15T23:29:35.882Z,6.70
2023-02-15T23:32:02.704Z,6.70
2023-02-15T23:34:30.148Z,6.70
2023-02-15T23:36:57.912Z,6.80
2023-02-15T23:39:47.084Z,6.70
2023-02-15T23:42:19.876Z,6.70
2023-02-15T23:44:48.394Z,6.60
2023-02-15T23:47:45.974Z,6.60
2023-02-15T23:50:28.816Z,6.60
2023-02-15T23:52:57.243Z,6.50
2023-02-15T23:55:37.941Z,6.50
2023-02-15T23:58:11.696Z,6.40
